Time;durP1;ratioP1;P1;durP2;ratioP2;P2;SDS_P1;SDS_P2;PMS_P1;PMS_P2;Temp;Humidity;BMP_temperature;BMP_pressure;BME280_temperature;BME280_humidity;BME280_pressure;Samples;Min_cycle;Max_cycle;Signal;HPM_P1;HPM_P2
2023/07/13 00:02:20;;;;;;;5.68;2.40;;;19.60;99.90;;;;;;5072663;28;20564;-69
2023/07/13 00:04:47;;;;;;;4.35;2.55;;;19.50;99.90;;;;;;5072762;28;20197;-69
2023/07/13 00:07:14;;;;;;;2.83;2.60;;;19.50;99.90;;;;;;5072620;28;20197;-69
2023/07/13 00:09:41;;;;;;;2.90;2.40;;;19.50;99.90;;;;;;5072620;28;20770;-69
2023/07/13 00:12:24;;;;;;;3.17;2.40;;;19.40;99.90;;;;;;5072484;28;20203;-69
2023/07/13 00:14:51;;;;;;;2.97;2.33;;;19.40;99.90;;;;;;5072431;28;20607;-69
2023/07/13 00:17:17;;;;;;;3.50;2.70;;;19.30;99.90;;;;;;5072634;28;20201;-71
2023/07/13 00:19:46;;;;;;;4.03;2.28;;;19.30;99.90;;;;;;5072498;28;20197;-70
2023/07/13 00:22:12;;;;;;;3.28;2.47;;;19.30;99.90;;;;;;5076425;28;20200;-72
2023/07/13 00:24:41;;;;;;;2.30;2.10;;;19.20;99.90;;;;;;5076514;28;20304;-70
2023/07/13 00:27:08;;;;;;;3.78;2.50;;;19.20;99.90;;;;;;5076599;28;20201;-70
2023/07/13 00:29:35;;;;;;;3.70;2.03;;;19.30;99.90;;;;;;5076441;28;20197;-70
2023/07/13 00:32:02;;;;;;;3.10;2.30;;;19.10;99.90;;;;;;5076303;28;20600;-70
2023/07/13 00:34:29;;;;;;;5.32;2.40;;;19.00;99.90;;;;;;5076190;28;20225;-70
2023/07/13 00:36:57;;;;;;;5.40;2.30;;;18.90;99.90;;;;;;5076363;28;20197;-70
2023/07/13 00:39:24;;;;;;;2.97;2.28;;;18.80;99.90;;;;;;5076291;28;20259;-70
2023/07/13 00:41:51;;;;;;;3.90;2.50;;;18.90;99.90;;;;;;5076381;28;20572;-70
2023/07/13 00:44:19;;;;;;;2.60;2.20;;;18.80;99.90;;;;;;5075968;28;20652;-70
2023/07/13 00:46:46;;;;;;;2.42;2.10;;;18.90;99.90;;;;;;5076095;28;20197;-69
2023/07/13 00:49:16;;;;;;;3.95;2.17;;;18.90;99.90;;;;;;5075905;28;20595;-70
2023/07/13 00:51:48;;;;;;;3.20;2.20;;;18.80;99.90;;;;;;5075859;28;20698;-70
2023/07/13 00:54:21;;;;;;;3.88;2.25;;;18.70;99.90;;;;;;5076114;28;20267;-70
2023/07/13 00:56:51;;;;;;;2.80;2.20;;;18.70;99.90;;;;;;5075654;28;20584;-70
2023/07/13 00:59:21;;;;;;;4.50;2.10;;;18.70;99.90;;;;;;5075737;28;20718;-70
2023/07/13 01:01:48;;;;;;;6.55;2.58;;;18.60;99.90;;;;;;5075666;28;20197;-70
2023/07/13 01:04:15;;;;;;;2.58;2.30;;;18.50;99.90;;;;;;5075619;28;20193;-70
2023/07/13 01:06:43;;;;;;;2.58;2.03;;;18.40;99.90;;;;;;5075803;28;20251;-70
2023/07/13 01:09:11;;;;;;;4.45;2.47;;;18.50;99.90;;;;;;5075866;28;20197;-70
2023/07/13 01:11:41;;;;;;;2.85;2.08;;;18.30;99.90;;;;;;5075613;28;20197;-70
2023/07/13 01:14:08;;;;;;;5.22;2.22;;;18.20;99.90;;;;;;5075406;28;20224;-69
2023/07/13 01:16:37;;;;;;;2.72;2.10;;;18.30;99.90;;;;;;5075345;28;20227;-69
2023/07/13 01:19:08;;;;;;;2.53;2.33;;;18.10;99.90;;;;;;5075405;28;20204;-69
2023/07/13 01:21:42;;;;;;;4.20;2.92;;;18.10;99.90;;;;;;5075369;28;20668;-69
2023/07/13 01:24:09;;;;;;;7.88;2.50;;;18.10;99.90;;;;;;5075651;28;20300;-69
2023/07/13 01:26:36;;;;;;;5.07;2.70;;;18.00;99.90;;;;;;5075322;28;20250;-70
2023/07/13 01:29:02;;;;;;;2.70;2.20;;;17.90;99.90;;;;;;5075178;28;20258;-69
2023/07/13 01:31:29;;;;;;;3.17;2.10;;;17.90;99.90;;;;;;5074921;28;20252;-69
2023/07/13 01:33:57;;;;;;;2.78;2.35;;;17.80;99.90;;;;;;5075231;28;20228;-69
2023/07/13 01:36:23;;;;;;;2.58;2.33;;;17.80;99.90;;;;;;5075170;28;20197;-69
2023/07/13 01:38:51;;;;;;;11.55;10.45;;;17.80;99.90;;;;;;5075227;28;20201;-69
2023/07/13 01:41:18;;;;;;;9.27;5.88;;;17.90;99.90;;;;;;5075028;28;20197;-69
2023/07/13 01:43:45;;;;;;;7.57;6.97;;;17.90;99.90;;;;;;5075038;28;20205;-68
2023/07/13 01:46:12;;;;;;;4.35;2.50;;;17.90;99.90;;;;;;5074943;28;20656;-68
2023/07/13 01:48:38;;;;;;;3.58;3.17;;;17.90;99.90;;;;;;5074953;28;20197;-68
2023/07/13 01:51:05;;;;;;;4.93;3.40;;;17.80;99.90;;;;;;5074984;28;20619;-68
2023/07/13 01:53:31;;;;;;;3.13;2.40;;;17.80;99.90;;;;;;5074725;28;20220;-69
2023/07/13 01:55:59;;;;;;;4.97;2.58;;;17.70;99.90;;;;;;5074405;28;20627;-69
2023/07/13 01:58:26;;;;;;;5.22;2.33;;;17.60;99.90;;;;;;5074600;28;20194;-68
2023/07/13 02:00:53;;;;;;;3.17;2.30;;;17.50;99.90;;;;;;5074805;28;20231;-69
2023/07/13 02:03:19;;;;;;;2.53;2.20;;;17.50;99.90;;;;;;5074704;28;20246;-69
2023/07/13 02:05:46;;;;;;;2.67;2.35;;;17.40;99.90;;;;;;5074536;28;20718;-69
2023/07/13 02:08:13;;;;;;;2.67;2.47;;;17.50;99.90;;;;;;5074421;28;20652;-69
2023/07/13 02:10:39;;;;;;;2.55;2.28;;;17.50;99.90;;;;;;5074422;28;20193;-69
2023/07/13 02:13:08;;;;;;;3.20;2.58;;;17.40;99.90;;;;;;5074493;28;20276;-69
2023/07/13 02:15:34;;;;;;;4.97;3.40;;;17.40;99.90;;;;;;5074482;28;20199;-69
2023/07/13 02:18:03;;;;;;;4.60;2.58;;;17.40;99.90;;;;;;5074494;28;20197;-69
2023/07/13 02:20:30;;;;;;;3.85;2.65;;;17.30;99.90;;;;;;5074327;28;20292;-69
2023/07/13 02:22:56;;;;;;;3.90;3.50;;;17.20;99.90;;;;;;5074252;28;20197;-69
2023/07/13 02:25:24;;;;;;;4.20;3.45;;;17.10;99.90;;;;;;5074055;28;20205;-69
2023/07/13 02:27:51;;;;;;;4.82;2.80;;;17.00;99.90;;;;;;5074256;28;20246;-70
2023/07/13 02:30:20;;;;;;;3.15;2.47;;;17.00;99.90;;;;;;5074209;28;20197;-69
2023/07/13 02:32:46;;;;;;;2.53;2.25;;;17.00;99.90;;;;;;5074077;28;20193;-69
2023/07/13 02:35:13;;;;;;;3.38;2.67;;;16.80;99.90;;;;;;5073936;28;20237;-69
2023/07/13 02:37:40;;;;;;;2.65;2.30;;;16.80;99.90;;;;;;5073799;28;20652;-69
2023/07/13 02:40:08;;;;;;;4.00;2.90;;;16.80;99.90;;;;;;5074036;28;20197;-69
2023/07/13 02:42:35;;;;;;;3.55;2.33;;;16.70;99.90;;;;;;5073336;28;20280;-69
2023/07/13 02:45:02;;;;;;;4.28;2.58;;;16.70;99.90;;;;;;5073679;28;20204;-69
2023/07/13 02:47:30;;;;;;;5.22;2.35;;;16.70;99.90;;;;;;5073852;28;20201;-70
2023/07/13 02:49:56;;;;;;;4.25;2.28;;;16.60;99.90;;;;;;5073677;28;20200;-69
2023/07/13 02:52:23;;;;;;;3.58;2.55;;;16.60;99.90;;;;;;5073774;28;20239;-70
2023/07/13 02:54:50;;;;;;;5.30;2.70;;;16.60;99.90;;;;;;5073662;28;20277;-71
2023/07/13 02:57:17;;;;;;;4.93;2.55;;;16.70;99.90;;;;;;5073628;28;20236;-69
2023/07/13 02:59:43;;;;;;;6.93;2.65;;;16.60;99.90;;;;;;5073491;28;20201;-69
2023/07/13 03:02:10;;;;;;;3.83;2.47;;;16.50;99.90;;;;;;5073530;28;20616;-69
2023/07/13 03:04:39;;;;;;;3.10;2.42;;;16.50;99.90;;;;;;5073380;28;20205;-69
2023/07/13 03:07:06;;;;;;;4.63;2.60;;;16.50;99.90;;;;;;5073157;28;20228;-70
2023/07/13 03:09:34;;;;;;;4.60;2.50;;;16.50;99.90;;;;;;5073439;28;20201;-69
2023/07/13 03:12:00;;;;;;;7.50;2.53;;;16.50;99.90;;;;;;5073324;28;20205;-69
2023/07/13 03:14:27;;;;;;;3.22;2.40;;;16.50;99.90;;;;;;5073267;28;20228;-69
2023/07/13 03:16:54;;;;;;;4.43;2.60;;;16.30;99.90;;;;;;5073173;28;20205;-69
2023/07/13 03:19:21;;;;;;;5.13;2.63;;;16.20;99.90;;;;;;5072989;28;20652;-70
2023/07/13 03:21:49;;;;;;;4.15;2.50;;;16.20;99.90;;;;;;5073597;28;20262;-69
2023/07/13 03:24:16;;;;;;;4.30;2.40;;;16.20;99.90;;;;;;5072786;28;20734;-69
2023/07/13 03:26:42;;;;;;;2.53;2.30;;;16.30;99.90;;;;;;5072966;28;20227;-70
2023/07/13 03:29:09;;;;;;;4.13;2.57;;;16.20;99.90;;;;;;5073052;28;20197;-69
2023/07/13 03:31:38;;;;;;;2.72;2.53;;;16.10;99.90;;;;;;5073054;28;20275;-70
2023/07/13 03:34:05;;;;;;;4.27;2.87;;;16.00;99.90;;;;;;5072805;28;20274;-70
2023/07/13 03:36:33;;;;;;;3.50;2.50;;;16.10;99.90;;;;;;5073059;28;20204;-69
2023/07/13 03:39:03;;;;;;;3.47;2.60;;;16.20;99.90;;;;;;5073119;28;20629;-68
2023/07/13 03:41:30;;;;;;;3.97;2.50;;;16.20;99.90;;;;;;5072953;28;20603;-69
2023/07/13 03:43:57;;;;;;;2.47;2.27;;;16.20;99.90;;;;;;5072847;28;20258;-70
2023/07/13 03:46:23;;;;;;;4.03;2.97;;;16.20;99.90;;;;;;5072713;28;20220;-68
2023/07/13 03:48:50;;;;;;;3.17;2.70;;;16.00;99.90;;;;;;5072880;28;20196;-69
2023/07/13 03:51:17;;;;;;;4.53;3.00;;;15.90;99.90;;;;;;5072858;28;20201;-69
2023/07/13 03:53:45;;;;;;;4.33;2.70;;;15.90;99.90;;;;;;5072294;28;20201;-68
2023/07/13 03:56:15;;;;;;;6.77;3.17;;;15.90;99.90;;;;;;5072426;28;20225;-68
2023/07/13 03:58:43;;;;;;;7.57;2.80;;;16.00;99.90;;;;;;5072610;28;20239;-68
2023/07/13 04:01:11;;;;;;;4.43;2.67;;;16.00;99.90;;;;;;5072511;28;20201;-69
2023/07/13 04:03:38;;;;;;;4.00;2.40;;;16.00;99.90;;;;;;5072732;28;20197;-69
2023/07/13 04:06:15;;;;;;;6.70;2.63;;;16.00;99.90;;;;;;5072566;28;20673;-69
2023/07/13 04:08:42;;;;;;;4.97;3.03;;;16.00;99.90;;;;;;5073138;28;20246;-69
2023/07/13 04:11:08;;;;;;;4.63;3.30;;;16.00;99.90;;;;;;5072493;28;20255;-69
2023/07/13 04:13:36;;;;;;;4.43;2.87;;;16.00;99.90;;;;;;5072391;28;20658;-69
2023/07/13 04:16:03;;;;;;;7.67;3.00;;;16.00;99.90;;;;;;5072576;28;20278;-69
2023/07/13 04:18:30;;;;;;;6.32;3.05;;;16.00;99.90;;;;;;5072518;28;20193;-69
2023/07/13 04:20:56;;;;;;;3.37;2.37;;;16.10;99.90;;;;;;5072418;28;20196;-69
2023/07/13 04:23:23;;;;;;;4.60;2.70;;;16.20;99.90;;;;;;5072462;28;20197;-69
2023/07/13 04:25:53;;;;;;;3.10;2.60;;;16.20;99.90;;;;;;5072482;28;20201;-69
2023/07/13 04:28:21;;;;;;;4.20;2.63;;;16.30;99.90;;;;;;5072185;28;20200;-69
2023/07/13 04:30:49;;;;;;;3.33;2.50;;;16.40;99.90;;;;;;5072501;28;20197;-70
2023/07/13 04:33:17;;;;;;;8.60;2.58;;;16.40;99.90;;;;;;5072364;28;20247;-69
2023/07/13 04:35:43;;;;;;;4.40;2.70;;;16.50;99.90;;;;;;5072312;28;20235;-69
2023/07/13 04:38:11;;;;;;;3.08;2.25;;;16.60;99.90;;;;;;5072211;28;20633;-69
2023/07/13 04:40:37;;;;;;;6.47;2.73;;;16.60;99.90;;;;;;5072330;28;20292;-69
2023/07/13 04:43:04;;;;;;;5.63;2.20;;;16.60;99.90;;;;;;5072397;28;20198;-69
2023/07/13 04:45:31;;;;;;;5.53;2.75;;;16.60;99.90;;;;;;5072335;28;20197;-69
2023/07/13 04:47:59;;;;;;;2.80;2.40;;;16.70;99.90;;;;;;5072165;28;20309;-69
2023/07/13 04:50:26;;;;;;;3.88;2.47;;;16.80;99.90;;;;;;5072289;28;20197;-69
2023/07/13 04:52:53;;;;;;;6.43;2.88;;;16.80;99.90;;;;;;5072131;28;20193;-70
2023/07/13 04:55:21;;;;;;;3.65;2.70;;;16.90;99.90;;;;;;5071993;28;20688;-69
2023/07/13 04:57:48;;;;;;;3.42;2.63;;;16.90;99.90;;;;;;5072241;28;20204;-69
2023/07/13 05:00:16;;;;;;;3.55;2.65;;;17.00;99.90;;;;;;5072380;28;20251;-69
2023/07/13 05:02:45;;;;;;;4.93;2.55;;;17.10;99.90;;;;;;5075500;28;20197;-69
2023/07/13 05:05:13;;;;;;;6.82;2.63;;;17.20;99.90;;;;;;5072683;28;20255;-69
2023/07/13 05:07:40;;;;;;;5.10;2.17;;;17.30;99.90;;;;;;5075371;28;20197;-70
2023/07/13 05:10:08;;;;;;;5.45;2.15;;;17.50;99.90;;;;;;5076054;28;20587;-69
2023/07/13 05:12:34;;;;;;;5.05;2.33;;;17.60;99.90;;;;;;5075724;28;20270;-69
2023/07/13 05:15:01;;;;;;;3.58;2.50;;;17.80;99.90;;;;;;5075552;28;20259;-69
2023/07/13 05:17:28;;;;;;;5.97;2.45;;;18.00;99.90;;;;;;5075377;28;20205;-70
2023/07/13 05:19:55;;;;;;;3.30;2.10;;;18.00;99.90;;;;;;5075389;28;20205;-69
2023/07/13 05:22:23;;;;;;;5.30;2.38;;;18.00;99.90;;;;;;5075213;28;20288;-68
2023/07/13 05:24:49;;;;;;;4.45;2.40;;;18.10;99.90;;;;;;5075435;28;20205;-68
2023/07/13 05:27:16;;;;;;;3.88;2.15;;;18.00;99.90;;;;;;5075156;28;20652;-69
2023/07/13 05:29:43;;;;;;;5.60;2.65;;;18.10;99.90;;;;;;5075239;28;20200;-68
2023/07/13 05:32:09;;;;;;;6.28;2.58;;;18.10;99.90;;;;;;5075035;28;20730;-70
2023/07/13 05:34:36;;;;;;;4.15;2.30;;;18.10;99.90;;;;;;5075036;28;20221;-70
2023/07/13 05:37:03;;;;;;;2.55;2.30;;;18.30;99.90;;;;;;5074712;28;20243;-69
2023/07/13 05:39:30;;;;;;;5.38;2.53;;;18.20;99.90;;;;;;5074909;28;20268;-69
2023/07/13 05:41:57;;;;;;;6.00;2.38;;;18.30;99.90;;;;;;5074881;28;20197;-69
2023/07/13 05:44:24;;;;;;;4.07;2.33;;;18.20;99.90;;;;;;5074768;28;20595;-69
2023/07/13 05:46:50;;;;;;;3.30;2.20;;;18.30;99.90;;;;;;5074835;28;20198;-69
2023/07/13 05:49:17;;;;;;;6.78;2.20;;;18.30;99.90;;;;;;5074465;28;20656;-69
2023/07/13 05:51:44;;;;;;;4.78;2.40;;;18.40;99.90;;;;;;5075136;28;20201;-69
2023/07/13 05:54:10;;;;;;;5.53;2.05;;;18.50;99.90;;;;;;5074844;28;20247;-69
2023/07/13 05:56:38;;;;;;;3.90;2.15;;;18.50;99.90;;;;;;5074588;28;20233;-70
2023/07/13 05:59:06;;;;;;;8.07;2.20;;;18.70;99.90;;;;;;5074687;28;20193;-70
2023/07/13 06:01:33;;;;;;;3.58;2.20;;;18.90;99.90;;;;;;5074784;28;20255;-69
2023/07/13 06:03:59;;;;;;;4.75;2.50;;;19.10;99.90;;;;;;5074407;28;20254;-69
2023/07/13 06:06:26;;;;;;;4.05;2.30;;;19.30;99.90;;;;;;5074796;28;20278;-69
2023/07/13 06:08:53;;;;;;;7.70;1.98;;;19.40;99.90;;;;;;5074515;28;20255;-69
2023/07/13 06:11:22;;;;;;;5.03;2.58;;;19.20;99.90;;;;;;5074532;28;20197;-69
2023/07/13 06:13:50;;;;;;;5.40;2.58;;;19.20;99.90;;;;;;5074421;28;20197;-69
2023/07/13 06:16:17;;;;;;;6.03;2.45;;;19.20;99.90;;;;;;5074317;28;20271;-69
2023/07/13 06:18:44;;;;;;;4.50;2.03;;;19.20;99.90;;;;;;5074163;28;20603;-69
2023/07/13 06:21:14;;;;;;;3.78;2.10;;;19.10;99.90;;;;;;5074375;28;20239;-69
2023/07/13 06:23:40;;;;;;;3.38;1.88;;;19.10;99.90;;;;;;5074199;28;20609;-69
2023/07/13 06:26:08;;;;;;;3.13;1.83;;;19.10;99.90;;;;;;5074055;28;20652;-70
2023/07/13 06:28:35;;;;;;;3.17;1.88;;;19.20;99.90;;;;;;5074096;28;20280;-70
2023/07/13 06:31:05;;;;;;;7.65;2.42;;;19.30;99.90;;;;;;5074095;28;20652;-70
2023/07/13 06:33:32;;;;;;;2.25;1.80;;;19.30;99.90;;;;;;5073994;28;20196;-70
2023/07/13 06:35:58;;;;;;;6.07;2.10;;;19.30;99.90;;;;;;5073929;28;20224;-67
2023/07/13 06:38:25;;;;;;;4.50;1.90;;;19.20;99.90;;;;;;5073914;28;20608;-70
2023/07/13 06:40:51;;;;;;;4.10;1.80;;;19.20;99.90;;;;;;5073861;28;20243;-70
2023/07/13 06:43:20;;;;;;;4.40;1.85;;;19.40;99.90;;;;;;5073716;28;20251;-70
2023/07/13 06:45:49;;;;;;;4.45;2.08;;;19.40;99.90;;;;;;5073535;28;20223;-70
2023/07/13 06:48:18;;;;;;;4.47;1.83;;;19.40;99.90;;;;;;5073763;28;20255;-70
2023/07/13 06:50:46;;;;;;;4.72;1.90;;;19.30;99.90;;;;;;5073702;28;20205;-70
2023/07/13 06:53:14;;;;;;;4.90;2.03;;;19.40;99.90;;;;;;5073620;28;20250;-70
2023/07/13 06:55:40;;;;;;;2.92;1.80;;;19.60;99.90;;;;;;5073177;28;20283;-70
2023/07/13 06:58:07;;;;;;;2.60;1.70;;;19.80;99.90;;;;;;5073389;28;20230;-70
2023/07/13 07:00:34;;;;;;;2.78;1.77;;;19.60;99.90;;;;;;5073562;28;20192;-70
2023/07/13 07:03:00;;;;;;;4.43;2.00;;;19.70;99.90;;;;;;5073330;28;20200;-70
2023/07/13 07:05:28;;;;;;;3.40;1.70;;;19.70;99.90;;;;;;5073403;28;20208;-70
2023/07/13 07:07:56;;;;;;;3.30;1.95;;;19.60;99.90;;;;;;5073340;28;20250;-70
2023/07/13 07:10:23;;;;;;;6.28;1.85;;;19.70;99.90;;;;;;5073316;28;20197;-70
2023/07/13 07:12:49;;;;;;;2.92;1.95;;;19.80;99.90;;;;;;5073075;28;20197;-70
2023/07/13 07:15:17;;;;;;;8.05;2.00;;;19.70;99.90;;;;;;5073310;28;20627;-70
2023/07/13 07:17:44;;;;;;;4.97;2.05;;;19.70;99.90;;;;;;5073192;28;20254;-69
2023/07/13 07:20:12;;;;;;;3.78;2.00;;;19.60;99.90;;;;;;5073099;28;20656;-69
2023/07/13 07:22:40;;;;;;;5.40;2.08;;;19.60;99.90;;;;;;5073047;28;20258;-69
2023/07/13 07:25:07;;;;;;;5.05;2.20;;;19.70;99.90;;;;;;5072957;28;20197;-69
2023/07/13 07:27:34;;;;;;;4.55;2.10;;;19.70;99.90;;;;;;5072857;28;20262;-69
2023/07/13 07:30:01;;;;;;;2.67;1.67;;;19.90;99.90;;;;;;5072605;28;20258;-69
2023/07/13 07:32:29;;;;;;;4.82;2.20;;;19.70;99.90;;;;;;5072951;28;20208;-68
2023/07/13 07:34:56;;;;;;;3.28;1.95;;;19.90;99.90;;;;;;5072765;28;20197;-69
2023/07/13 07:37:23;;;;;;;3.08;1.67;;;19.90;99.90;;;;;;5072819;28;20196;-69
2023/07/13 07:39:51;;;;;;;6.57;2.20;;;20.20;99.90;;;;;;5072836;28;20193;-68
2023/07/13 07:42:17;;;;;;;4.53;1.90;;;20.30;99.90;;;;;;5072604;28;20201;-68
2023/07/13 07:44:44;;;;;;;4.80;1.98;;;20.30;99.90;;;;;;5072761;28;20648;-69
2023/07/13 07:47:10;;;;;;;5.10;2.13;;;20.20;99.90;;;;;;5072660;28;20212;-70
2023/07/13 07:49:38;;;;;;;3.85;2.10;;;20.20;99.90;;;;;;5072681;28;20197;-70
2023/07/13 07:52:05;;;;;;;5.10;1.77;;;20.20;99.90;;;;;;5072696;28;20197;-69
2023/07/13 07:54:32;;;;;;;3.65;2.10;;;20.20;99.90;;;;;;5072446;28;20599;-69
2023/07/13 07:57:00;;;;;;;3.72;2.22;;;20.20;99.90;;;;;;5072417;28;20237;-69
2023/07/13 07:59:26;;;;;;;5.35;2.20;;;20.50;99.90;;;;;;5072555;28;20596;-69
2023/07/13 08:01:53;;;;;;;5.15;2.30;;;20.60;99.50;;;;;;5072635;28;20247;-69
2023/07/13 08:04:19;;;;;;;7.53;2.10;;;20.60;98.90;;;;;;5072413;28;20561;-70
2023/07/13 08:06:46;;;;;;;5.68;2.03;;;20.80;99.10;;;;;;5072631;28;20259;-70
2023/07/13 08:09:13;;;;;;;5.13;1.80;;;20.90;97.00;;;;;;5072775;28;20208;-70
2023/07/13 08:11:39;;;;;;;3.80;2.00;;;21.00;94.80;;;;;;5072508;28;20725;-69
2023/07/13 08:14:09;;;;;;;4.63;2.03;;;21.20;94.60;;;;;;5072665;28;20201;-69
2023/07/13 08:16:35;;;;;;;5.95;2.17;;;21.20;94.70;;;;;;5072510;28;20310;-70
2023/07/13 08:19:02;;;;;;;3.40;2.20;;;21.60;94.70;;;;;;5072463;28;20243;-69
2023/07/13 08:21:29;;;;;;;2.88;2.13;;;21.60;94.10;;;;;;5072588;28;20204;-69
2023/07/13 08:23:56;;;;;;;3.22;1.75;;;21.60;95.10;;;;;;5072508;28;20193;-69
2023/07/13 08:26:23;;;;;;;4.18;1.80;;;21.60;93.50;;;;;;5072507;28;20193;-69
2023/07/13 08:28:50;;;;;;;3.10;1.60;;;21.90;92.10;;;;;;5072332;28;20250;-70
2023/07/13 08:31:18;;;;;;;4.22;1.95;;;22.20;91.10;;;;;;5072388;28;20193;-70
2023/07/13 08:33:45;;;;;;;2.75;1.75;;;22.00;90.20;;;;;;5072306;28;20596;-70
2023/07/13 08:36:11;;;;;;;4.30;2.10;;;22.00;89.70;;;;;;5072094;28;20283;-70
2023/07/13 08:38:38;;;;;;;2.75;1.75;;;22.30;87.40;;;;;;5072392;28;20242;-70
2023/07/13 08:41:12;;;;;;;3.08;2.15;;;22.50;86.50;;;;;;5072779;28;20197;-70
2023/07/13 08:43:40;;;;;;;4.32;2.03;;;22.30;84.70;;;;;;5076288;28;20222;-70
2023/07/13 08:46:13;;;;;;;2.85;1.55;;;22.40;84.80;;;;;;5076039;28;20607;-70
2023/07/13 08:48:46;;;;;;;3.08;1.85;;;22.40;84.20;;;;;;5075757;28;20275;-70
2023/07/13 08:51:25;;;;;;;4.50;1.80;;;22.50;83.50;;;;;;5076031;28;20201;-69
2023/07/13 08:53:56;;;;;;;3.03;2.00;;;22.40;80.30;;;;;;5075977;28;20715;-70
2023/07/13 08:56:26;;;;;;;4.57;1.73;;;22.60;79.70;;;;;;5075748;28;20241;-70
2023/07/13 08:58:57;;;;;;;3.05;1.85;;;22.80;80.30;;;;;;5075693;28;20263;-70
2023/07/13 09:01:30;;;;;;;4.05;1.80;;;22.70;81.10;;;;;;5075674;28;20197;-69
2023/07/13 09:04:06;;;;;;;3.63;1.65;;;22.70;77.10;;;;;;5075715;28;20246;-69
2023/07/13 09:06:41;;;;;;;2.92;1.80;;;22.70;74.60;;;;;;5075600;28;20838;-70
2023/07/13 09:09:14;;;;;;;3.45;1.70;;;22.70;76.20;;;;;;5075488;28;20702;-69
2023/07/13 09:11:50;;;;;;;3.80;1.98;;;23.10;74.30;;;;;;5075433;28;20282;-69
2023/07/13 09:14:34;;;;;;;3.97;2.10;;;22.80;75.40;;;;;;5075596;28;20196;-69
2023/07/13 09:17:03;;;;;;;3.53;1.80;;;22.80;72.50;;;;;;5075338;28;20228;-69
2023/07/13 09:19:35;;;;;;;3.03;1.88;;;23.00;72.90;;;;;;5075296;28;20617;-69
2023/07/13 09:22:03;;;;;;;3.22;1.85;;;22.60;72.20;;;;;;5075176;28;20656;-69
2023/07/13 09:24:38;;;;;;;5.20;1.75;;;23.10;71.00;;;;;;5075449;28;20197;-69
2023/07/13 09:27:17;;;;;;;5.90;1.85;;;23.40;70.10;;;;;;5075194;28;20655;-69
2023/07/13 09:29:48;;;;;;;4.53;1.73;;;23.20;69.70;;;;;;5075245;28;20200;-70
2023/07/13 09:32:18;;;;;;;2.88;1.98;;;23.70;69.00;;;;;;5075196;28;20204;-70
2023/07/13 09:34:52;;;;;;;2.80;1.70;;;23.80;67.00;;;;;;5075128;28;20205;-70
2023/07/13 09:37:22;;;;;;;3.35;2.00;;;24.30;65.80;;;;;;5075221;28;20298;-70
2023/07/13 09:39:51;;;;;;;3.40;1.77;;;23.70;64.90;;;;;;5075130;28;20250;-69
2023/07/13 09:42:21;;;;;;;4.05;1.75;;;24.00;65.40;;;;;;5074984;28;20255;-70
2023/07/13 09:44:54;;;;;;;3.78;1.70;;;24.20;64.30;;;;;;5075392;28;20208;-70
2023/07/13 09:47:25;;;;;;;4.43;1.80;;;24.60;63.10;;;;;;5075074;28;20224;-69
2023/07/13 09:49:58;;;;;;;3.58;1.90;;;24.70;62.30;;;;;;5075190;28;20598;-69
2023/07/13 09:52:27;;;;;;;3.10;1.75;;;25.30;61.80;;;;;;5074490;28;20657;-70
2023/07/13 09:54:58;;;;;;;7.30;2.28;;;25.80;61.40;;;;;;5074744;28;20255;-69
2023/07/13 09:57:28;;;;;;;6.43;1.70;;;25.00;58.20;;;;;;5074707;28;20330;-69
2023/07/13 09:59:58;;;;;;;5.05;1.88;;;25.20;59.20;;;;;;5074980;28;20201;-69
2023/07/13 10:02:27;;;;;;;5.10;1.70;;;25.60;59.60;;;;;;5074692;28;20205;-70
2023/07/13 10:05:00;;;;;;;5.43;2.08;;;25.10;57.50;;;;;;5074645;28;20201;-70
2023/07/13 10:07:28;;;;;;;3.10;1.60;;;24.80;57.40;;;;;;5074793;28;20197;-70
2023/07/13 10:09:55;;;;;;;2.20;1.52;;;25.80;57.20;;;;;;5074230;28;20207;-71
2023/07/13 10:12:23;;;;;;;3.17;1.80;;;26.00;56.00;;;;;;5074668;28;20197;-71
2023/07/13 10:14:52;;;;;;;2.63;1.80;;;25.20;56.40;;;;;;5074604;28;20300;-70
2023/07/13 10:17:26;;;;;;;3.28;1.88;;;24.60;56.00;;;;;;5074470;28;20225;-70
2023/07/13 10:19:53;;;;;;;4.63;1.63;;;25.10;56.10;;;;;;5074432;28;20599;-70
2023/07/13 10:22:28;;;;;;;3.33;1.80;;;25.30;56.10;;;;;;5074241;28;20243;-70
2023/07/13 10:24:55;;;;;;;3.30;1.85;;;25.40;55.90;;;;;;5074157;28;20595;-70
2023/07/13 10:27:30;;;;;;;3.80;1.67;;;24.90;55.50;;;;;;5074400;28;20209;-70
2023/07/13 10:30:12;;;;;;;2.90;1.70;;;25.50;55.50;;;;;;5074303;28;20242;-70
2023/07/13 10:32:40;;;;;;;4.55;1.90;;;25.10;55.40;;;;;;5074022;28;20208;-70
2023/07/13 10:35:12;;;;;;;5.10;1.90;;;25.50;54.00;;;;;;5073895;28;20710;-71
2023/07/13 10:37:45;;;;;;;4.00;1.80;;;25.80;54.60;;;;;;5074040;28;20232;-70
2023/07/13 10:40:17;;;;;;;2.13;1.88;;;26.80;53.10;;;;;;5073956;28;20209;-71
2023/07/13 10:42:47;;;;;;;4.82;2.03;;;26.70;53.40;;;;;;5073978;28;20201;-69
2023/07/13 10:45:16;;;;;;;4.95;2.00;;;26.10;53.10;;;;;;5073648;28;20657;-69
2023/07/13 10:47:43;;;;;;;3.40;1.70;;;24.90;53.40;;;;;;5073629;28;20723;-70
2023/07/13 10:50:17;;;;;;;5.03;1.70;;;25.10;53.40;;;;;;5073864;28;20254;-69
2023/07/13 10:52:47;;;;;;;3.97;2.00;;;24.70;53.30;;;;;;5073661;28;20196;-70
2023/07/13 10:55:38;;;;;;;2.75;1.83;;;24.30;54.70;;;;;;5073663;28;20205;-70
2023/07/13 10:58:14;;;;;;;5.03;2.00;;;26.10;54.60;;;;;;5073502;28;20264;-70
2023/07/13 11:00:49;;;;;;;4.13;2.00;;;26.00;52.40;;;;;;5073570;28;20207;-70
2023/07/13 11:03:18;;;;;;;2.17;1.75;;;25.70;53.70;;;;;;5073278;28;20196;-70
2023/07/13 11:05:44;;;;;;;4.05;1.80;;;25.20;53.20;;;;;;5072918;28;20196;-70
2023/07/13 11:08:22;;;;;;;4.80;2.40;;;24.90;53.10;;;;;;5073312;28;20201;-69
2023/07/13 11:10:53;;;;;;;5.63;2.10;;;25.10;52.10;;;;;;5073343;28;20728;-69
2023/07/13 11:13:39;;;;;;;5.38;2.00;;;26.10;51.60;;;;;;5073693;28;20197;-70
2023/07/13 11:16:14;;;;;;;3.97;1.95;;;26.90;50.10;;;;;;5073198;28;20193;-69
2023/07/13 11:18:42;;;;;;;3.88;2.13;;;27.10;49.30;;;;;;5073167;28;20667;-69
2023/07/13 11:21:15;;;;;;;4.45;1.80;;;27.30;49.00;;;;;;5073301;28;20197;-69
2023/07/13 11:23:47;;;;;;;2.63;1.73;;;26.70;49.70;;;;;;5073294;28;20201;-70
2023/07/13 11:26:39;;;;;;;3.08;2.00;;;27.60;48.10;;;;;;5073524;28;20204;-70
2023/07/13 11:29:10;;;;;;;3.10;2.25;;;29.20;47.20;;;;;;5072797;28;20193;-69
2023/07/13 11:31:38;;;;;;;4.78;2.10;;;27.80;44.40;;;;;;5073311;28;20216;-69
2023/07/13 11:34:13;;;;;;;3.25;1.85;;;27.00;45.40;;;;;;5073121;28;20254;-70
2023/07/13 11:36:45;;;;;;;2.92;2.10;;;27.20;46.00;;;;;;5072967;28;20225;-69
2023/07/13 11:39:20;;;;;;;4.18;2.00;;;26.70;46.00;;;;;;5073050;28;20204;-69
2023/07/13 11:41:52;;;;;;;5.65;1.90;;;27.20;45.60;;;;;;5073091;28;20204;-69
2023/07/13 11:44:20;;;;;;;3.63;1.92;;;27.60;45.40;;;;;;5072865;28;20197;-69
2023/07/13 11:46:51;;;;;;;4.28;2.13;;;26.70;45.90;;;;;;5072939;28;20246;-70
2023/07/13 11:49:18;;;;;;;3.28;1.88;;;26.60;45.90;;;;;;5072951;28;20266;-69
2023/07/13 11:51:46;;;;;;;2.75;2.10;;;25.80;45.10;;;;;;5072817;28;20196;-69
2023/07/13 11:54:29;;;;;;;4.07;2.10;;;26.10;46.60;;;;;;5072597;28;20561;-70
2023/07/13 11:57:00;;;;;;;3.42;1.88;;;27.30;46.00;;;;;;5072745;28;20232;-70
2023/07/13 11:59:27;;;;;;;3.47;1.90;;;26.90;46.30;;;;;;5072914;28;20205;-69
2023/07/13 12:01:55;;;;;;;5.10;2.10;;;28.70;44.80;;;;;;5072767;28;20197;-69
2023/07/13 12:04:26;;;;;;;5.07;2.25;;;27.70;45.40;;;;;;5072605;28;20201;-71
2023/07/13 12:06:59;;;;;;;3.60;2.00;;;26.40;46.40;;;;;;5072651;28;20669;-71
2023/07/13 12:09:29;;;;;;;5.10;2.38;;;27.40;45.90;;;;;;5072732;28;20196;-71
2023/07/13 12:11:57;;;;;;;4.85;2.05;;;27.00;45.00;;;;;;5072905;28;20209;-70
2023/07/13 12:14:26;;;;;;;3.75;2.00;;;26.70;45.80;;;;;;5072540;28;20197;-71
2023/07/13 12:16:53;;;;;;;3.55;2.17;;;27.40;45.70;;;;;;5075858;28;20227;-71
2023/07/13 12:19:23;;;;;;;4.65;1.90;;;27.30;45.50;;;;;;5076788;28;20330;-70
2023/07/13 12:21:51;;;;;;;4.65;1.92;;;27.50;46.30;;;;;;5076899;28;20279;-70
2023/07/13 12:24:20;;;;;;;3.70;2.10;;;27.30;46.20;;;;;;5076732;28;20246;-70
2023/07/13 12:26:53;;;;;;;4.10;2.17;;;27.10;46.30;;;;;;5076365;28;20278;-70
2023/07/13 12:29:20;;;;;;;4.15;2.30;;;26.50;46.10;;;;;;5076190;28;20193;-71
2023/07/13 12:31:49;;;;;;;8.18;2.30;;;26.30;47.00;;;;;;5076456;28;20201;-71
2023/07/13 12:34:18;;;;;;;2.78;2.13;;;26.30;47.30;;;;;;5076446;28;20201;-71
2023/07/13 12:36:49;;;;;;;3.05;2.05;;;26.30;46.30;;;;;;5076255;28;20229;-71
2023/07/13 12:39:19;;;;;;;5.25;1.98;;;26.10;47.30;;;;;;5076292;28;20197;-68
2023/07/13 12:41:47;;;;;;;5.20;2.30;;;26.40;47.40;;;;;;5076358;28;20291;-69
2023/07/13 12:44:17;;;;;;;4.55;2.28;;;26.20;46.00;;;;;;5075989;28;20201;-69
2023/07/13 12:46:56;;;;;;;2.67;1.95;;;25.50;47.70;;;;;;5076001;28;20656;-69
2023/07/13 12:49:28;;;;;;;4.40;2.53;;;26.10;48.90;;;;;;5075849;28;20624;-71
2023/07/13 12:52:00;;;;;;;5.82;2.08;;;28.00;46.40;;;;;;5076049;28;20197;-70
2023/07/13 12:54:28;;;;;;;3.50;2.03;;;28.30;45.50;;;;;;5075828;28;20243;-69
2023/07/13 12:56:58;;;;;;;4.72;2.15;;;27.30;45.50;;;;;;5075825;28;20278;-69